Terminal Aerodrome Forecast
Issued by NWS Topeka, KS

Home | Current Version | Previous Version | Text Only | Print | Product List | Glossary On
Versions: 1 2 3 4 5 6 7 8 9 10 11 12 13 14 15 16 17
000
FTUS43 KTOP 311100
TAFTOP
TAF
KTOP 311130Z 3112/0112 01005KT P6SM OVC017
     FM311500 05008KT P6SM BKN022
     FM311800 07007KT P6SM SCT035
     FM010900 05003KT P6SM SCT040 BKN150=

USA.gov is the U.S. government's official web portal to all federal, state and local government web resources and services.